Time;durP1;ratioP1;P1;durP2;ratioP2;P2;SDS_P1;SDS_P2;PMS_P1;PMS_P2;Temp;Humidity;BMP_temperature;BMP_pressure;BME280_temperature;BME280_humidity;BME280_pressure;Samples;Min_cycle;Max_cycle;Signal;HPM_P1;HPM_P2
2023/02/01 00:02:32;;;;;;;2.00;1.70;;;;;;;2.39;88.22;98792.09;218610;1265;138864;-66
2023/02/01 00:07:37;;;;;;;4.40;1.80;;;;;;;2.37;88.28;98799.17;218901;1266;139235;-67
2023/02/01 00:12:42;;;;;;;1.80;1.10;;;;;;;2.36;88.32;98806.66;218715;1265;139319;-65
2023/02/01 00:17:46;;;;;;;2.20;1.80;;;;;;;2.36;88.01;98811.92;216414;1266;140402;-64
2023/02/01 00:22:51;;;;;;;3.80;1.40;;;;;;;2.35;87.95;98806.62;218605;1267;139673;-63
2023/02/01 00:27:56;;;;;;;4.00;1.10;;;;;;;2.31;87.58;98812.94;218566;1267;138756;-68
2023/02/01 00:33:01;;;;;;;5.40;1.90;;;;;;;2.23;87.50;98807.51;216051;1270;138658;-64
2023/02/01 00:38:05;;;;;;;5.90;1.80;;;;;;;2.18;87.84;98817.30;217960;1266;139563;-64
2023/02/01 00:43:09;;;;;;;8.20;2.80;;;;;;;2.20;87.97;98816.94;216265;1270;139216;-64
2023/02/01 00:48:13;;;;;;;2.20;2.10;;;;;;;2.20;87.79;98817.79;217257;1267;139879;-64
2023/02/01 00:53:19;;;;;;;5.00;1.30;;;;;;;2.21;87.55;98818.48;216174;1267;139005;-68
2023/02/01 00:58:25;;;;;;;4.00;1.30;;;;;;;2.20;87.90;98823.25;216433;1267;138648;-63
2023/02/01 01:03:33;;;;;;;3.90;1.30;;;;;;;2.08;87.25;98820.91;216452;1270;141501;-66
2023/02/01 01:08:37;;;;;;;7.70;2.30;;;;;;;2.02;87.59;98820.39;216620;1263;139141;-65
2023/02/01 01:13:41;;;;;;;1.60;1.00;;;;;;;2.00;87.74;98825.48;218223;1260;139464;-68
2023/02/01 01:18:45;;;;;;;3.80;1.70;;;;;;;2.01;87.61;98827.50;217500;1258;139538;-64
2023/02/01 01:23:50;;;;;;;4.80;2.20;;;;;;;1.97;87.23;98831.46;217175;1261;161894;-67
2023/02/01 01:28:56;;;;;;;6.30;1.80;;;;;;;1.96;87.44;98833.04;217228;1262;138511;-64
2023/02/01 01:34:01;;;;;;;6.30;1.70;;;;;;;1.95;87.78;98829.35;217699;1259;138913;-63
2023/02/01 01:39:05;;;;;;;10.60;2.40;;;;;;;1.97;87.72;98841.70;218518;1259;138477;-68
2023/02/01 01:45:03;;;;;;;9.50;3.90;;;;;;;1.99;87.60;98849.98;217281;1262;140034;-65
2023/02/01 01:50:11;;;;;;;8.40;2.10;;;;;;;1.98;87.56;98847.88;218218;1259;139442;-67
2023/02/01 01:55:19;;;;;;;3.40;1.70;;;;;;;2.00;87.73;98843.23;217004;1262;139770;-67
2023/02/01 02:00:24;;;;;;;6.80;1.70;;;;;;;2.00;87.68;98842.35;218210;1259;140861;-68
2023/02/01 02:05:29;;;;;;;4.60;2.10;;;;;;;2.00;87.84;98846.64;217247;1258;139727;-63
2023/02/01 02:16:45;;;;;;;9.10;3.20;;;;;;;2.07;87.70;98841.79;218981;1258;138866;-66
2023/02/01 02:22:26;;;;;;;6.80;3.00;;;;;;;2.05;87.60;98848.70;218971;1259;140070;-67
2023/02/01 02:27:40;;;;;;;11.60;2.40;;;;;;;2.08;87.63;98858.38;218227;1259;140272;-66
2023/02/01 02:32:58;;;;;;;8.70;4.10;;;;;;;2.12;87.54;98859.91;217925;1262;138929;-68
2023/02/01 02:38:40;;;;;;;2.30;1.50;;;;;;;2.14;87.68;98868.56;217987;1260;140927;-68
2023/02/01 02:49:40;;;;;;;3.30;2.00;;;;;;;2.17;87.54;98865.35;217196;1262;139711;-68
2023/02/01 02:54:50;;;;;;;10.70;3.30;;;;;;;2.12;87.35;98865.20;217560;1262;140887;-66
2023/02/01 03:05:23;;;;;;;6.80;1.90;;;;;;;2.09;87.38;98875.93;217209;1262;139496;-67
2023/02/01 03:11:07;;;;;;;22.30;3.70;;;;;;;2.07;87.52;98871.23;217251;1262;139443;-67
2023/02/01 03:16:34;;;;;;;9.10;2.10;;;;;;;2.06;87.69;98868.92;217268;1262;139707;-67
2023/02/01 03:21:50;;;;;;;10.20;2.10;;;;;;;2.07;87.62;98879.44;217288;1260;140201;-68
2023/02/01 03:26:57;;;;;;;10.50;3.00;;;;;;;2.09;87.37;98881.14;217262;1260;140134;-65
2023/02/01 03:32:03;;;;;;;10.00;2.10;;;;;;;2.11;87.39;98881.27;217089;1262;139121;-67
2023/02/01 03:37:12;;;;;;;10.20;2.30;;;;;;;2.12;87.42;98877.59;218038;1259;140660;-68
2023/02/01 03:42:27;;;;;;;6.50;1.70;;;;;;;2.15;87.20;98878.90;219078;1260;140960;-68
2023/02/01 03:47:38;;;;;;;10.00;3.40;;;;;;;2.19;87.28;98883.69;217171;1262;138808;-68
2023/02/01 03:52:47;;;;;;;5.70;1.50;;;;;;;2.22;87.26;98883.48;217866;1259;139031;-67
2023/02/01 03:58:21;;;;;;;5.40;1.30;;;;;;;2.20;87.11;98868.30;220037;1259;141051;-69
2023/02/01 04:03:27;;;;;;;6.30;2.10;;;;;;;2.23;87.16;98876.16;220177;1260;139359;-66
2023/02/01 04:08:32;;;;;;;2.90;1.60;;;;;;;2.26;86.84;98877.33;220023;1259;139702;-67
2023/02/01 04:13:37;;;;;;;8.50;2.10;;;;;;;2.26;86.66;98878.27;217263;1260;139448;-64
2023/02/01 04:18:40;;;;;;;7.20;1.50;;;;;;;2.26;86.82;98875.36;217231;1260;139419;-65
2023/02/01 04:23:44;;;;;;;3.40;1.30;;;;;;;2.26;86.76;98877.22;217809;1259;138502;-66
2023/02/01 04:28:52;;;;;;;6.10;1.50;;;;;;;2.24;86.58;98882.80;217404;1260;139075;-67
2023/02/01 04:33:57;;;;;;;4.40;2.50;;;;;;;2.19;86.39;98875.02;218464;1262;138934;-66
2023/02/01 04:39:02;;;;;;;6.50;2.30;;;;;;;2.21;86.62;98886.02;217533;1260;139493;-66
2023/02/01 04:44:06;;;;;;;3.30;1.80;;;;;;;2.22;86.40;98884.48;217058;1260;140875;-67
2023/02/01 04:49:13;;;;;;;11.90;4.20;;;;;;;2.21;86.29;98878.98;217419;1262;139773;-67
2023/02/01 04:54:18;;;;;;;9.00;1.60;;;;;;;2.18;86.41;98883.23;217400;1259;141736;-68
2023/02/01 04:59:23;;;;;;;6.90;1.70;;;;;;;2.20;86.53;98886.67;217511;1260;139043;-64
2023/02/01 05:04:28;;;;;;;6.40;1.90;;;;;;;2.21;86.51;98886.84;218662;1258;138935;-66
2023/02/01 05:09:33;;;;;;;2.00;0.90;;;;;;;2.24;86.17;98889.55;217455;1259;138749;-66
2023/02/01 05:14:37;;;;;;;9.80;2.40;;;;;;;2.27;86.28;98887.61;217801;1259;138299;-64
2023/02/01 05:19:40;;;;;;;13.20;2.20;;;;;;;2.29;86.04;98885.52;217029;1262;139194;-65
2023/02/01 05:24:45;;;;;;;5.70;2.10;;;;;;;2.29;85.90;98886.44;217315;1262;139547;-67
2023/02/01 05:29:49;;;;;;;3.70;1.20;;;;;;;2.37;85.84;98883.61;217179;1259;140899;-66
2023/02/01 05:34:53;;;;;;;4.90;2.00;;;;;;;2.38;85.67;98878.36;216957;1263;138918;-65
2023/02/01 05:39:56;;;;;;;5.80;2.10;;;;;;;2.38;85.76;98869.05;217781;1262;139258;-67
2023/02/01 05:45:01;;;;;;;12.30;3.20;;;;;;;2.36;85.53;98873.27;217209;1260;140262;-64
2023/02/01 05:50:06;;;;;;;5.50;2.10;;;;;;;2.37;85.65;98875.98;220101;1259;139802;-68
2023/02/01 05:55:11;;;;;;;13.80;2.10;;;;;;;2.42;85.43;98880.35;220106;1260;139944;-68
2023/02/01 06:00:17;;;;;;;4.80;2.50;;;;;;;2.48;85.48;98876.63;220109;1262;140455;-67
2023/02/01 06:05:26;;;;;;;7.90;2.40;;;;;;;2.55;85.09;98874.94;220139;1259;139675;-68
2023/02/01 06:10:31;;;;;;;6.50;2.00;;;;;;;2.60;84.90;98870.44;220271;1260;138879;-68
2023/02/01 06:15:38;;;;;;;;;;;;;;;2.60;84.83;98863.23;218415;1260;139646;-69
2023/02/01 06:20:42;;;;;;;6.80;1.90;;;;;;;2.61;84.68;98867.05;217681;1260;125392;-68
2023/02/01 06:25:48;;;;;;;7.20;2.10;;;;;;;2.64;84.66;98866.84;218069;1260;138754;-70
2023/02/01 06:30:53;;;;;;;7.30;1.90;;;;;;;2.64;84.64;98870.77;217378;1260;138893;-70
2023/02/01 06:36:03;;;;;;;8.30;2.60;;;;;;;2.64;84.69;98865.17;217116;1259;138518;-71
2023/02/01 06:41:09;;;;;;;3.60;2.70;;;;;;;2.64;84.51;98865.55;217995;1262;139334;-70
2023/02/01 06:46:14;;;;;;;12.70;2.80;;;;;;;2.66;84.25;98870.48;216985;1262;140262;-69
2023/02/01 06:51:28;;;;;;;8.40;3.00;;;;;;;2.63;84.27;98871.26;217025;1264;139489;-70
2023/02/01 06:56:33;;;;;;;4.80;1.80;;;;;;;2.64;84.17;98869.23;217325;1260;139177;-68
2023/02/01 07:01:38;;;;;;;12.00;2.00;;;;;;;2.65;84.16;98866.92;217450;1260;230241;-66
2023/02/01 07:06:43;;;;;;;5.90;2.00;;;;;;;2.66;84.27;98860.92;217149;1262;139631;-66
2023/02/01 07:11:48;;;;;;;10.40;2.20;;;;;;;2.64;84.06;98863.60;217259;1260;138684;-66
2023/02/01 07:16:54;;;;;;;8.90;4.40;;;;;;;2.64;83.99;98860.69;217375;1260;140247;-67
2023/02/01 07:22:00;;;;;;;1.90;1.30;;;;;;;2.64;83.86;98860.16;217563;1260;139871;-67
2023/02/01 07:27:05;;;;;;;8.40;3.10;;;;;;;2.66;83.90;98856.64;218181;1259;138438;-67
2023/02/01 07:32:10;;;;;;;14.90;3.40;;;;;;;2.74;83.71;98862.25;217255;1259;231947;-67
2023/02/01 07:37:14;;;;;;;5.00;2.50;;;;;;;2.84;83.90;98863.80;217350;1262;141187;-67
2023/02/01 07:42:19;;;;;;;5.30;3.10;;;;;;;2.90;83.56;98865.20;217060;1260;139071;-68
2023/02/01 07:47:23;;;;;;;15.00;3.00;;;;;;;2.94;83.57;98866.09;217387;1259;138349;-69
2023/02/01 07:52:28;;;;;;;8.50;3.50;;;;;;;3.01;83.45;98864.05;218629;1259;139272;-69
2023/02/01 07:57:33;;;;;;;4.30;2.90;;;;;;;3.06;83.27;98855.52;220148;1258;139524;-77
2023/02/01 08:02:38;;;;;;;8.30;3.10;;;;;;;3.07;83.21;98855.07;220136;1259;138572;-72
2023/02/01 08:07:43;;;;;;;9.40;4.80;;;;;;;3.11;83.02;98851.52;218213;1260;140266;-69
2023/02/01 08:12:48;;;;;;;10.20;3.20;;;;;;;3.12;82.99;98851.84;217806;1263;139411;-69
2023/02/01 08:17:54;;;;;;;10.60;4.10;;;;;;;3.16;82.97;98851.27;217036;1263;140634;-70
2023/02/01 08:22:58;;;;;;;19.60;4.10;;;;;;;3.26;82.91;98848.52;217193;1259;141382;-71
2023/02/01 08:28:04;;;;;;;8.40;3.90;;;;;;;3.30;82.71;98847.50;217193;1262;139907;-68
2023/02/01 08:33:09;;;;;;;12.50;3.00;;;;;;;3.36;82.76;98850.30;217161;1260;139992;-67
2023/02/01 08:38:15;;;;;;;13.10;5.40;;;;;;;3.37;82.47;98838.16;217145;1260;139657;-67
2023/02/01 08:43:19;;;;;;;8.10;3.00;;;;;;;3.38;82.40;98839.54;217021;1260;138891;-68
2023/02/01 08:48:24;;;;;;;13.80;3.50;;;;;;;3.52;82.60;98839.88;217256;1263;143183;-67
2023/02/01 08:53:28;;;;;;;13.70;3.10;;;;;;;3.68;82.39;98846.88;217458;1262;139300;-66
2023/02/01 08:58:33;;;;;;;13.50;3.60;;;;;;;3.80;82.39;98852.98;216951;1262;139697;-68
2023/02/01 09:03:38;;;;;;;3.20;2.90;;;;;;;3.72;82.38;98853.46;217212;1262;140377;-69
2023/02/01 09:08:43;;;;;;;11.80;2.50;;;;;;;3.62;82.50;98852.27;217892;1258;139432;-68
2023/02/01 09:13:48;;;;;;;8.00;2.60;;;;;;;3.58;82.76;98850.23;217166;1260;141804;-72
2023/02/01 09:18:54;;;;;;;12.70;4.60;;;;;;;3.51;82.70;98845.64;217913;1259;138913;-71
2023/02/01 09:24:19;;;;;;;10.40;3.40;;;;;;;3.49;82.85;98853.68;217189;1262;140616;-73
2023/02/01 09:29:23;;;;;;;6.50;2.80;;;;;;;3.51;82.93;98861.20;216963;1263;140186;-72
2023/02/01 09:34:27;;;;;;;11.40;6.50;;;;;;;3.44;82.84;98855.92;217089;1263;139226;-70
2023/02/01 09:39:33;;;;;;;10.40;4.00;;;;;;;3.34;83.07;98859.71;217139;1262;141416;-69
2023/02/01 09:44:41;;;;;;;7.50;3.20;;;;;;;3.34;83.52;98856.92;218105;1263;140273;-72
2023/02/01 09:50:22;;;;;;;14.30;5.50;;;;;;;3.29;83.47;98849.68;217335;1260;138949;-70
2023/02/01 09:55:42;;;;;;;16.10;4.70;;;;;;;3.29;83.89;98851.06;219933;1263;140404;-74
2023/02/01 10:00:56;;;;;;;9.20;4.50;;;;;;;3.32;83.95;98851.94;219921;1260;140232;-75
2023/02/01 10:06:13;;;;;;;14.80;4.00;;;;;;;3.35;83.83;98854.33;218520;1259;139848;-70
2023/02/01 10:11:27;;;;;;;17.20;4.50;;;;;;;3.30;83.90;98854.88;217958;1263;139938;-67
2023/02/01 10:16:50;;;;;;;11.20;4.50;;;;;;;3.31;83.85;98857.09;217981;1264;139689;-66
2023/02/01 10:22:42;;;;;;;13.20;4.10;;;;;;;3.30;83.72;98854.88;217344;1264;139821;-67
2023/02/01 10:28:13;;;;;;;15.60;5.10;;;;;;;3.38;84.05;98853.73;216886;1264;139764;-68
2023/02/01 10:33:28;;;;;;;11.60;5.40;;;;;;;3.53;84.28;98843.23;216899;1263;140126;-68
2023/02/01 10:38:33;;;;;;;10.80;4.10;;;;;;;3.66;84.12;98838.02;217045;1261;140716;-67
2023/02/01 10:43:39;;;;;;;13.10;6.40;;;;;;;3.78;84.18;98833.84;218126;1260;140011;-66
2023/02/01 10:48:44;;;;;;;5.80;4.00;;;;;;;3.95;84.18;98828.77;217097;1263;139979;-66
2023/02/01 10:54:03;;;;;;;9.90;4.90;;;;;;;4.13;84.02;98823.04;217746;1263;140229;-65
2023/02/01 10:59:19;;;;;;;12.60;6.40;;;;;;;4.33;84.08;98812.91;218078;1260;139178;-65
2023/02/01 11:04:26;;;;;;;12.60;5.60;;;;;;;4.52;83.57;98808.16;217486;1262;140031;-68
2023/02/01 11:09:31;;;;;;;8.70;3.40;;;;;;;4.56;83.10;98802.33;216709;1260;576722;-67
2023/02/01 11:14:39;;;;;;;11.70;3.90;;;;;;;4.58;83.04;98795.84;217998;1261;139681;-67
2023/02/01 11:19:45;;;;;;;15.40;4.00;;;;;;;4.63;82.73;98795.86;217475;1262;140056;-64
2023/02/01 11:24:50;;;;;;;20.00;5.60;;;;;;;4.63;82.35;98781.45;218463;1260;139021;-69
2023/02/01 11:30:01;;;;;;;8.60;3.50;;;;;;;4.71;82.35;98778.33;216964;1260;140040;-69
2023/02/01 11:35:06;;;;;;;7.90;3.00;;;;;;;4.80;81.98;98773.08;217048;1261;139161;-70
2023/02/01 11:40:17;;;;;;;9.60;3.60;;;;;;;4.84;81.61;98775.95;217156;1264;138709;-67
2023/02/01 11:45:27;;;;;;;3.90;2.50;;;;;;;4.81;81.60;98782.24;217083;1263;141135;-67
2023/02/01 11:51:03;;;;;;;4.20;2.60;;;;;;;4.79;81.81;98778.60;219178;1261;139386;-67
2023/02/01 11:56:28;;;;;;;9.30;3.40;;;;;;;5.13;82.01;98769.52;218038;1263;140162;-67
2023/02/01 12:01:52;;;;;;;6.50;3.50;;;;;;;5.33;81.63;98771.90;218533;1259;140031;-67
2023/02/01 12:07:14;;;;;;;3.40;2.90;;;;;;;5.29;81.12;98766.80;217691;1260;140400;-65
2023/02/01 12:12:29;;;;;;;7.50;2.60;;;;;;;5.11;80.92;98764.55;217134;1260;139853;-66
2023/02/01 12:17:58;;;;;;;4.60;2.10;;;;;;;4.92;81.00;98767.67;217147;1261;141129;-66
2023/02/01 12:23:37;;;;;;;10.40;6.40;;;;;;;4.67;80.93;98773.57;218701;1262;139462;-67
2023/02/01 12:29:10;;;;;;;9.50;4.40;;;;;;;4.47;81.41;98769.04;217437;1260;139479;-64
2023/02/01 12:34:24;;;;;;;11.40;3.80;;;;;;;4.26;81.69;98763.20;217038;1263;139214;-65
2023/02/01 12:39:54;;;;;;;11.70;4.80;;;;;;;4.16;82.04;98764.31;218945;1260;140671;-63
2023/02/01 12:45:37;;;;;;;8.70;4.00;;;;;;;4.24;82.54;98755.06;217291;1260;139385;-65
2023/02/01 12:50:53;;;;;;;11.20;5.00;;;;;;;4.45;82.70;98755.73;217711;1261;139872;-65
2023/02/01 12:56:06;;;;;;;3.90;3.40;;;;;;;4.58;82.61;98753.91;217059;1260;141760;-64
2023/02/01 13:01:43;;;;;;;5.40;3.20;;;;;;;4.55;82.32;98752.40;216986;1261;140198;-65
2023/02/01 13:07:02;;;;;;;12.80;4.70;;;;;;;4.54;82.38;98761.09;217621;1260;139758;-68
2023/02/01 13:12:24;;;;;;;9.40;4.00;;;;;;;4.55;82.63;98755.77;217872;1261;140004;-67
2023/02/01 13:17:33;;;;;;;7.20;4.90;;;;;;;4.52;82.20;98752.84;217096;1259;140554;-63
2023/02/01 13:22:43;;;;;;;9.10;4.60;;;;;;;4.46;82.06;98751.88;218244;1260;140250;-66
2023/02/01 13:27:48;;;;;;;10.40;4.20;;;;;;;4.39;82.22;98752.39;219687;1260;140068;-65
2023/02/01 13:33:06;;;;;;;7.00;3.90;;;;;;;4.29;82.28;98755.37;220117;1259;140614;-69
2023/02/01 13:38:35;;;;;;;;;;;;;;;4.25;82.49;98748.20;217475;1262;139045;-67
2023/02/01 13:43:47;;;;;;;8.70;4.60;;;;;;;4.18;82.69;98749.60;220480;1259;126518;-67
2023/02/01 13:49:00;;;;;;;15.30;6.50;;;;;;;4.14;82.79;98750.77;217688;1259;140072;-67
2023/02/01 13:54:05;;;;;;;8.60;4.80;;;;;;;4.10;82.91;98748.98;218768;1259;140112;-66
2023/02/01 13:59:36;;;;;;;8.10;6.40;;;;;;;4.10;83.13;98751.41;219106;1259;140926;-65
2023/02/01 14:04:50;;;;;;;13.00;7.40;;;;;;;4.08;82.97;98751.83;217158;1260;210224;-68
2023/02/01 14:09:54;;;;;;;7.90;4.20;;;;;;;4.04;83.19;98751.86;218454;1259;139234;-66
2023/02/01 14:15:25;;;;;;;8.60;5.60;;;;;;;4.05;83.31;98750.20;217275;1260;139233;-68
2023/02/01 14:20:48;;;;;;;9.60;4.20;;;;;;;4.10;83.28;98756.69;217298;1261;139936;-69
2023/02/01 14:26:07;;;;;;;5.40;4.20;;;;;;;4.11;83.13;98763.01;217123;1261;139740;-67
2023/02/01 14:31:35;;;;;;;5.50;4.50;;;;;;;4.03;83.21;98768.02;217134;1260;139076;-67
2023/02/01 14:36:50;;;;;;;5.10;4.10;;;;;;;3.94;83.04;98775.86;217005;1259;140125;-69
2023/02/01 14:41:57;;;;;;;7.30;3.40;;;;;;;3.83;83.01;98770.23;217133;1262;140165;-68
2023/02/01 14:47:08;;;;;;;11.80;4.20;;;;;;;3.70;83.06;98769.98;218439;1259;138718;-68
2023/02/01 14:52:17;;;;;;;5.10;2.90;;;;;;;3.62;83.33;98771.03;217142;1262;139076;-63
2023/02/01 14:57:26;;;;;;;4.50;3.90;;;;;;;3.60;83.36;98769.13;218713;1259;140477;-65
2023/02/01 15:02:36;;;;;;;5.60;4.40;;;;;;;3.58;83.39;98769.23;218122;1259;139711;-62
2023/02/01 15:07:43;;;;;;;6.10;4.30;;;;;;;3.58;83.37;98774.58;217273;1260;139271;-67
2023/02/01 15:12:49;;;;;;;4.70;3.50;;;;;;;3.51;83.54;98783.83;219986;1259;139049;-69
2023/02/01 15:18:02;;;;;;;5.30;4.50;;;;;;;3.46;83.51;98787.45;217850;1260;139528;-67
2023/02/01 15:23:18;;;;;;;5.80;4.10;;;;;;;3.48;83.47;98786.52;217678;1259;139234;-70
2023/02/01 15:28:25;;;;;;;6.10;4.20;;;;;;;3.45;83.42;98796.27;218226;1259;139629;-69
2023/02/01 15:33:32;;;;;;;6.30;4.50;;;;;;;3.41;83.48;98794.86;219991;1258;140223;-69
2023/02/01 15:38:40;;;;;;;5.90;5.10;;;;;;;3.39;83.54;98791.75;220060;1258;139251;-68
2023/02/01 15:43:53;;;;;;;7.90;4.20;;;;;;;3.36;83.38;98799.07;218573;1259;139832;-67
2023/02/01 15:49:00;;;;;;;5.50;3.80;;;;;;;3.30;83.31;98803.73;218543;1259;140245;-67
2023/02/01 15:54:19;;;;;;;6.90;4.50;;;;;;;3.25;83.38;98811.04;219151;1258;139978;-64
2023/02/01 15:59:31;;;;;;;6.00;3.90;;;;;;;3.18;83.52;98808.77;218572;1257;140331;-67
2023/02/01 16:04:48;;;;;;;4.30;3.10;;;;;;;3.14;83.53;98812.05;217062;1262;139599;-68
2023/02/01 16:09:58;;;;;;;5.30;3.40;;;;;;;3.12;83.58;98812.10;217147;1262;139385;-65
2023/02/01 16:15:02;;;;;;;5.60;3.90;;;;;;;3.09;83.62;98806.92;217457;1260;139138;-67
2023/02/01 16:20:08;;;;;;;7.60;3.30;;;;;;;3.05;83.71;98801.48;220138;1257;139288;-67
2023/02/01 16:25:13;;;;;;;7.70;3.20;;;;;;;3.02;83.62;98808.64;219888;1259;139912;-69
2023/02/01 16:30:22;;;;;;;5.00;4.50;;;;;;;3.00;83.63;98818.36;219885;1259;138689;-68
2023/02/01 16:35:35;;;;;;;7.20;3.10;;;;;;;2.99;83.49;98818.04;220167;1259;139654;-69
2023/02/01 16:40:41;;;;;;;6.20;3.00;;;;;;;3.00;83.67;98812.98;219969;1259;140258;-66
2023/02/01 16:45:48;;;;;;;5.80;4.30;;;;;;;3.02;83.76;98811.59;219878;1259;139193;-71
2023/02/01 16:51:01;;;;;;;4.40;3.00;;;;;;;3.03;83.48;98808.42;220104;1259;140403;-72
2023/02/01 16:56:15;;;;;;;7.60;3.50;;;;;;;3.02;83.29;98806.85;220081;1259;140453;-71
2023/02/01 17:01:19;;;;;;;6.10;3.30;;;;;;;3.03;83.40;98804.58;219982;1258;141214;-70
2023/02/01 17:11:19;;;;;;;14.90;6.50;;;;;;;3.07;83.60;98806.95;213997;1297;658153;-69
2023/02/01 17:16:29;;;;;;;12.30;5.20;;;;;;;3.05;83.58;98808.27;217933;1269;139203;-69
2023/02/01 17:22:00;;;;;;;11.20;4.80;;;;;;;3.01;83.46;98803.41;218425;1267;442144;-68
2023/02/01 17:27:07;;;;;;;7.10;4.20;;;;;;;3.00;83.66;98799.73;219041;1271;139375;-68
2023/02/01 17:32:18;;;;;;;14.70;5.40;;;;;;;3.02;83.76;98796.16;218659;1263;139059;-68
2023/02/01 17:37:31;;;;;;;11.00;5.10;;;;;;;3.08;83.81;98796.40;217446;1263;138779;-67
2023/02/01 17:42:36;;;;;;;11.80;6.10;;;;;;;3.08;83.55;98797.10;218750;1259;138416;-68
2023/02/01 17:47:41;;;;;;;13.80;5.80;;;;;;;3.03;83.63;98804.67;218369;1261;161616;-68
2023/02/01 17:52:45;;;;;;;13.50;5.30;;;;;;;3.01;83.74;98808.92;217668;1259;139754;-67
2023/02/01 17:57:50;;;;;;;9.80;4.30;;;;;;;2.96;83.47;98800.67;218417;1260;139414;-66
2023/02/01 18:02:56;;;;;;;11.20;6.30;;;;;;;2.91;83.62;98791.54;217167;1266;139838;-66
2023/02/01 18:08:00;;;;;;;5.70;3.30;;;;;;;2.86;83.80;98794.98;218074;1263;138726;-68
2023/02/01 18:13:05;;;;;;;6.00;2.90;;;;;;;2.83;83.87;98789.61;218849;1263;138895;-67
2023/02/01 18:18:10;;;;;;;6.10;4.10;;;;;;;2.83;83.96;98792.08;217190;1260;161734;-66
2023/02/01 18:23:21;;;;;;;10.30;5.00;;;;;;;2.80;84.00;98786.34;217932;1263;139011;-68
2023/02/01 18:28:25;;;;;;;8.00;4.10;;;;;;;2.73;84.03;98788.90;217018;1260;139070;-65
2023/02/01 18:33:29;;;;;;;11.30;5.50;;;;;;;2.74;84.37;98786.63;217727;1257;139983;-68
2023/02/01 18:38:33;;;;;;;6.70;3.80;;;;;;;2.71;84.25;98777.73;218380;1257;141581;-68
2023/02/01 18:43:38;;;;;;;8.90;6.10;;;;;;;2.64;84.47;98777.38;219135;1260;138522;-66
2023/02/01 18:48:45;;;;;;;9.00;3.60;;;;;;;2.57;84.65;98775.61;217891;1254;140747;-66
2023/02/01 18:53:50;;;;;;;11.70;6.30;;;;;;;2.54;84.39;98772.21;218318;1254;141510;-69
2023/02/01 18:58:58;;;;;;;10.60;4.40;;;;;;;2.55;84.85;98770.11;219062;1254;139971;-65
2023/02/01 19:04:03;;;;;;;8.40;6.80;;;;;;;2.57;84.84;98761.77;218366;1255;140763;-68
2023/02/01 19:09:21;;;;;;;13.40;9.10;;;;;;;2.63;85.02;98751.88;219451;1257;138837;-66
2023/02/01 19:14:25;;;;;;;6.60;5.00;;;;;;;2.72;85.16;98748.55;218018;1254;139436;-67
2023/02/01 19:19:29;;;;;;;8.00;5.30;;;;;;;2.74;84.97;98745.11;219560;1254;139448;-67
2023/02/01 19:24:34;;;;;;;9.50;5.80;;;;;;;2.70;85.04;98743.77;220278;1254;138377;-66
2023/02/01 19:29:43;;;;;;;10.60;6.00;;;;;;;2.70;85.19;98733.85;221039;1253;138618;-68
2023/02/01 19:34:50;;;;;;;14.20;7.70;;;;;;;2.78;85.04;98722.73;221062;1253;140566;-67
2023/02/01 19:39:57;;;;;;;8.70;6.00;;;;;;;2.85;85.28;98721.59;218964;1254;139843;-65
2023/02/01 19:45:03;;;;;;;10.90;6.10;;;;;;;2.93;85.19;98717.54;219278;1254;140715;-66
2023/02/01 19:50:14;;;;;;;12.70;6.00;;;;;;;2.99;85.51;98707.02;219457;1255;139276;-68
2023/02/01 19:55:19;;;;;;;8.70;6.10;;;;;;;3.02;85.38;98701.06;220321;1254;139145;-69
2023/02/01 20:00:24;;;;;;;8.30;6.10;;;;;;;3.02;85.60;98695.23;218373;1253;138474;-67
2023/02/01 20:05:30;;;;;;;9.00;5.60;;;;;;;3.03;85.31;98698.05;218491;1257;138796;-68
2023/02/01 20:10:35;;;;;;;9.80;5.60;;;;;;;3.02;85.30;98688.23;218802;1254;141048;-71
2023/02/01 20:15:43;;;;;;;11.60;4.10;;;;;;;3.00;85.14;98686.00;218680;1254;140840;-66
2023/02/01 20:20:49;;;;;;;11.90;4.40;;;;;;;2.98;85.08;98683.02;218405;1257;140099;-67
2023/02/01 20:25:59;;;;;;;9.10;4.00;;;;;;;2.92;85.46;98681.06;218292;1254;143702;-67
2023/02/01 20:31:06;;;;;;;8.10;4.90;;;;;;;2.91;85.38;98677.55;218809;1254;138391;-67
2023/02/01 20:36:12;;;;;;;10.00;6.80;;;;;;;2.87;85.56;98680.07;218430;1254;140051;-65
2023/02/01 20:41:16;;;;;;;8.50;5.00;;;;;;;2.87;85.64;98679.34;219379;1254;139882;-65
2023/02/01 20:46:21;;;;;;;8.40;4.90;;;;;;;2.87;85.73;98675.94;219553;1257;138360;-66
2023/02/01 20:51:25;;;;;;;8.90;5.50;;;;;;;2.86;85.55;98669.86;218128;1254;139948;-66
2023/02/01 20:56:29;;;;;;;10.90;6.10;;;;;;;2.88;85.92;98665.61;220327;1254;139737;-66
2023/02/01 21:01:34;;;;;;;7.00;3.20;;;;;;;2.93;85.92;98666.67;218653;1254;139126;-66
2023/02/01 21:06:40;;;;;;;7.20;4.20;;;;;;;2.99;86.00;98661.39;219440;1254;140870;-67
2023/02/01 21:11:45;;;;;;;5.90;4.00;;;;;;;2.99;85.68;98662.48;220221;1254;140224;-66
2023/02/01 21:16:52;;;;;;;4.00;2.40;;;;;;;2.99;85.92;98659.04;220569;1254;139688;-65
2023/02/01 21:21:56;;;;;;;5.40;2.70;;;;;;;2.97;85.70;98658.77;220733;1254;139553;-64
2023/02/01 21:27:01;;;;;;;4.80;3.20;;;;;;;2.96;85.62;98657.83;220672;1254;139462;-66
2023/02/01 21:32:09;;;;;;;70.00;34.90;;;;;;;2.92;85.25;98666.77;219485;1254;140849;-65
2023/02/01 21:37:24;;;;;;;14.80;11.00;;;;;;;2.83;85.10;98672.64;219742;1254;139764;-66
2023/02/01 21:42:30;;;;;;;4.50;3.70;;;;;;;2.72;85.04;98673.77;219162;1254;139512;-63
2023/02/01 21:47:37;;;;;;;5.10;2.30;;;;;;;2.64;85.24;98683.19;220482;1254;139583;-65
2023/02/01 21:52:44;;;;;;;7.70;3.00;;;;;;;2.55;85.22;98683.34;220149;1254;138843;-64
2023/02/01 21:57:51;;;;;;;4.40;3.10;;;;;;;2.55;85.55;98691.44;218345;1254;140386;-69
2023/02/01 22:02:56;;;;;;;4.00;3.60;;;;;;;2.53;85.43;98694.52;218628;1254;140332;-66
2023/02/01 22:08:01;;;;;;;5.70;3.80;;;;;;;2.50;85.54;98692.98;218989;1254;139194;-66
2023/02/01 22:13:07;;;;;;;9.00;4.90;;;;;;;2.50;85.75;98692.09;218410;1254;141945;-64
2023/02/01 22:18:14;;;;;;;7.00;5.50;;;;;;;2.52;86.23;98689.14;219329;1254;141063;-66
2023/02/01 22:23:19;;;;;;;7.00;3.90;;;;;;;2.50;86.27;98691.41;218533;1254;138814;-66
2023/02/01 22:28:28;;;;;;;6.30;5.00;;;;;;;2.46;86.18;98688.10;218434;1254;139228;-66
2023/02/01 22:33:40;;;;;;;4.80;3.30;;;;;;;2.43;86.33;98681.98;218588;1256;139642;-67
2023/02/01 22:38:51;;;;;;;4.30;3.60;;;;;;;2.39;86.48;98684.63;218033;1258;139291;-67
2023/02/01 22:43:59;;;;;;;5.30;4.70;;;;;;;2.35;86.54;98691.63;219011;1254;139796;-69
2023/02/01 22:49:04;;;;;;;7.70;5.40;;;;;;;2.27;86.84;98684.98;217902;1254;138940;-68
2023/02/01 22:54:19;;;;;;;7.20;5.70;;;;;;;2.31;86.78;98682.34;219139;1254;139276;-65
2023/02/01 22:59:26;;;;;;;6.90;6.20;;;;;;;2.33;86.98;98677.84;220174;1254;141049;-64
2023/02/01 23:04:30;;;;;;;9.70;5.50;;;;;;;2.36;87.02;98683.05;220257;1254;138812;-63
2023/02/01 23:09:34;;;;;;;8.90;5.60;;;;;;;2.32;86.71;98686.73;219424;1254;139135;-65
2023/02/01 23:15:04;;;;;;;9.80;6.30;;;;;;;2.29;86.80;98680.85;220803;1254;154625;-67
2023/02/01 23:20:14;;;;;;;7.10;6.10;;;;;;;2.31;86.64;98679.39;220687;1254;139374;-66
2023/02/01 23:25:18;;;;;;;9.60;5.20;;;;;;;2.32;86.51;98689.86;220121;1254;140259;-67
2023/02/01 23:30:22;;;;;;;11.10;5.00;;;;;;;2.31;86.86;98692.33;219438;1254;139558;-68
2023/02/01 23:35:27;;;;;;;6.90;5.20;;;;;;;2.27;86.48;98694.08;218503;1254;143848;-68
2023/02/01 23:40:34;;;;;;;12.90;5.30;;;;;;;2.24;86.84;98691.70;218055;1254;138916;-65
2023/02/01 23:45:42;;;;;;;11.50;5.30;;;;;;;2.21;86.67;98696.31;219096;1254;139701;-65
2023/02/01 23:50:49;;;;;;;6.80;5.30;;;;;;;2.22;87.03;98697.77;219852;1254;139484;-67
2023/02/01 23:55:53;;;;;;;9.90;5.50;;;;;;;2.26;87.04;98699.02;218692;1254;139760;-66
